Pagina principale
METAR-TAF:

METAR-TAF

Aeroporti :

La Seu d'Urgell, Spagna

latitudine: 42-20-29N, longitudine: 001-24-17E, altezza: 802 m

Osservazione

Il bollettino è stato emesso 18 ore e 41 minuti fa, alle 16:00 UTC
Vento 2 kt da sud
Temperature 7°C
Umidità 70%
Pressione 1017 hPa
Visibilità 10 km o più
nessuna nube inferiore a 1500 m e nessun cumulonembo

METAR: LESU 271600Z 19002KT CAVOK 07/02 Q1017

Ora: 11:41 (10:41 UTC)

Previsione

Il bollettino è stato emesso 19 ore e 4 minuti fa, alle 15:37 UTC
Previsione valida dal 27 alle 15 UTC al 28 alle 15 UTC
Vento 3 kt da direzioni variabili
Visibilità 10 km o più
Poco nuvoloso ad un'altezza di 1400 ft
Probabilità 30% :
Temporaneamente
dal 27 alle 18 UTC al 28 alle 06 UTC
Visibilità: 4000 m
Nuvoloso ad un'altezza di 800 ft
foschia

TAF: LESU 271537Z 2715/2815 VRB03KT 9999 FEW014 TX11/2814Z TN03/2807Z PROB30 TEMPO 2718/2806 4000 BR BKN008

Osservazioni e previsioni meteorologiche di più di 4000 aeroporti (messaggi METAR e TAF).

Le stazioni disponibili sono rappresentate dai dischi gialli e rossi sulla carta.

Puntare il mouse per vedere il nome della stazione.

Clicca sopra per visualizzare le osservazioni e previsioni meteorologiche.

Per cambiare la mappa : fare clic sui pulsanti verdi con una croce nera per ingrandire, il pulsante verde con un trattino per diminuire, o sulla freccia verde per le mappe adiacenti.


METAR-TAF: